Meteo Giornale » Osservazioni meteo Stati Uniti (USA) » Plymouth

ore: 15:52 - Osservazioni Meteo Plymouth
Lat. 41° 54' N Lon. 70° 43' W Alt. 45 metri s.l.m.

coperto

17 °C

Coperto

Temp. 24 Ore

17 °C

22 °C

Nord

5.5 Km/h

Dew point 16 °C

Umidità 93 %

Visibilità  14 Km

Il sole sorge alle ore 06:08

Il sole tramonta alle ore 19:16

Data e Ora Cielo e Fenomeni T °C DP °C Um. % Pres. hPa Vis. km Vento km/h
Oggi h: 15:52 coperto Coperto 17 16 93 1018 14 N 5.5
Oggi h: 14:52 coperto_pioggia Pioggia 17 16 93 1017 10 N 5.5
Oggi h: 13:52 coperto_pioggia Pioggia 17 14 82 1017 10 N 5.5
Oggi h: 12:52 coperto Coperto 21 15 68 1017 10 S/SE 9.3
Oggi h: 11:52 molto_nuvoloso Molto Nuvoloso 22 14 60 1017 10 S/SE 7.4
Oggi h: 10:52 molto_nuvoloso Molto Nuvoloso 22 18 78 1017 10 N 11.1
Oggi h: 09:52 coperto Coperto 20 17 82 1018 10 N 5.5
Oggi h: 08:52 coperto Coperto 20 17 82 1018 10 N 0
Oggi h: 07:52 coperto Coperto 19 17 88 1017 10 N 0
Oggi h: 06:52 coperto Coperto 18 17 93 1017 10 N 0
Oggi h: 05:52 coperto Coperto 18 17 93 1017 10 N 0
Oggi h: 04:52 coperto Coperto 18 16 88 1017 10 N 0
Oggi h: 03:52 coperto Coperto 18 16 88 1017 10 N 0
Oggi h: 02:52 coperto Coperto 18 16 88 1018 10 N 5.5
Oggi h: 01:52 molto_nuvoloso Molto Nuvoloso 18 16 88 1018 10 S 7.4
Oggi h: 00:52 nuvoloso Nuvoloso 18 16 88 1018 10 N 5.5
Ieri h: 23:52 sereno Sereno 19 17 88 1018 10 N 5.5
Ieri h: 22:52 sereno Sereno 18 16 88 1018 10 S/SO 9.3
Ieri h: 21:52 sereno Sereno 19 17 88 1019 10 N 5.5
Ieri h: 20:52 coperto Coperto 19 16 82 1018 10 N 5.5
Ieri h: 19:52 poco_nuvoloso Poco Nuvoloso 19 16 82 1019 10 N 5.5
Ieri h: 18:52 sereno Sereno 19 15 77 1019 10 N 5.5
Ieri h: 17:52 sereno Sereno 21 14 64 1019 10 SE 7.4
Ieri h: 16:52 sereno Sereno 22 13 56 1019 10 E/SE 11.1